Time;durP1;ratioP1;P1;durP2;ratioP2;P2;SDS_P1;SDS_P2;PMS_P1;PMS_P2;Temp;Humidity;BMP_temperature;BMP_pressure;BME280_temperature;BME280_humidity;BME280_pressure;Samples;Min_cycle;Max_cycle;Signal;HPM_P1;HPM_P2
2021/06/10 03:21:30;;;;;;;48.33;45.23;;;12.90;99.90;;;;;;4845473;24;20506;-78
2021/06/10 03:23:57;;;;;;;43.03;39.07;;;12.80;99.90;;;;;;4815522;29;20456;-78
2021/06/10 03:26:28;;;;;;;46.30;42.90;;;12.90;99.90;;;;;;4812521;29;21042;-78
2021/06/10 03:28:55;;;;;;;47.40;44.20;;;12.70;99.90;;;;;;4816940;29;20455;-79
2021/06/10 03:31:21;;;;;;;55.90;52.40;;;12.70;99.90;;;;;;4807655;29;20542;-78
2021/06/10 03:33:52;;;;;;;51.23;48.30;;;12.80;99.90;;;;;;4806348;29;20520;-79
2021/06/10 03:36:20;;;;;;;50.33;47.23;;;12.80;99.90;;;;;;4807009;29;20982;-82
2021/06/10 03:38:50;;;;;;;53.40;49.70;;;12.70;99.90;;;;;;4808429;29;20500;-80
2021/06/10 03:41:17;;;;;;;50.13;46.93;;;12.70;99.90;;;;;;4809482;29;20456;-79
2021/06/10 03:43:44;;;;;;;58.57;54.97;;;12.80;99.90;;;;;;4807471;29;20554;-78
2021/06/10 03:46:11;;;;;;;49.77;46.50;;;12.70;99.90;;;;;;4816894;29;20458;-78
2021/06/10 03:48:39;;;;;;;47.17;44.23;;;12.70;99.90;;;;;;4811084;29;20459;-78
2021/06/10 03:55:05;;;;;;;44.80;42.20;;;12.80;99.90;;;;;;4964058;24;20482;-85
2021/06/10 04:05:30;;;;;;;;;;;;;;;;;;;;;
2021/06/10 04:42:54;;;;;;;32.90;30.20;;;13.50;99.90;;;;;;4571787;30;20462;-81
2021/06/10 04:45:29;;;;;;;31.77;28.87;;;13.60;99.90;;;;;;4674912;30;20612;-81
2021/06/10 04:48:22;;;;;;;28.30;25.43;;;13.70;99.90;;;;;;4679838;30;20484;-80
2021/06/10 04:50:54;;;;;;;29.97;27.17;;;13.80;99.90;;;;;;4711163;30;20562;-81
2021/06/10 04:53:29;;;;;;;33.57;31.00;;;13.80;99.90;;;;;;4732707;30;20540;-81
2021/06/10 04:55:59;;;;;;;31.70;29.20;;;13.90;99.90;;;;;;4732266;30;20487;-80
2021/06/10 04:58:58;;;;;;;32.17;29.27;;;14.10;99.90;;;;;;4732600;30;20474;-81
2021/06/10 05:02:01;;;;;;;30.87;28.07;;;14.00;99.90;;;;;;4732218;30;20474;-81
2021/06/10 05:04:27;;;;;;;32.30;29.57;;;14.10;99.90;;;;;;4787202;29;20471;-78
2021/06/10 05:06:54;;;;;;;24.87;20.93;;;14.30;99.90;;;;;;4788010;30;20500;-78
2021/06/10 05:09:20;;;;;;;22.20;15.50;;;14.30;99.90;;;;;;4787381;30;20462;-79
2021/06/10 05:11:46;;;;;;;21.80;16.23;;;14.40;99.90;;;;;;4787896;30;20881;-78
2021/06/10 05:14:15;;;;;;;22.60;14.40;;;14.60;99.90;;;;;;4787802;30;20460;-78
2021/06/10 05:16:44;;;;;;;23.70;19.37;;;14.70;99.90;;;;;;4787492;30;20891;-78
2021/06/10 05:19:10;;;;;;;29.77;12.33;;;15.30;99.90;;;;;;4786768;30;20508;-78
2021/06/10 05:21:37;;;;;;;30.27;8.40;;;16.00;99.90;;;;;;4787830;30;20888;-79
2021/06/10 05:24:04;;;;;;;29.17;5.60;;;16.80;99.90;;;;;;4787875;30;20478;-79
2021/06/10 05:26:30;;;;;;;31.13;5.07;;;17.80;99.90;;;;;;4787380;30;20468;-79
2021/06/10 05:28:57;;;;;;;33.03;5.70;;;18.80;99.90;;;;;;4787289;30;20474;-78
2021/06/10 05:31:24;;;;;;;38.43;6.77;;;19.40;87.80;;;;;;4786542;30;20984;-79
2021/06/10 05:33:51;;;;;;;45.07;6.70;;;20.00;65.50;;;;;;4785539;30;20502;-79
2021/06/10 05:36:17;;;;;;;50.10;7.33;;;20.60;55.00;;;;;;4786775;30;20525;-78
2021/06/10 05:38:44;;;;;;;55.10;7.87;;;20.80;51.20;;;;;;4787712;30;20507;-78
2021/06/10 05:41:10;;;;;;;53.97;9.17;;;21.10;45.40;;;;;;4786784;30;20460;-79
2021/06/10 05:43:37;;;;;;;56.30;11.30;;;21.40;45.70;;;;;;4786277;30;20460;-79
2021/06/10 05:46:04;;;;;;;60.20;16.30;;;21.80;46.00;;;;;;4786919;30;20468;-78
2021/06/10 05:48:31;;;;;;;64.20;17.90;;;22.10;38.80;;;;;;4788368;29;20837;-78
2021/06/10 05:50:58;;;;;;;64.70;18.77;;;22.90;38.10;;;;;;4790449;30;20470;-77
2021/06/10 05:53:24;;;;;;;65.93;16.40;;;23.20;30.10;;;;;;4789917;29;20517;-78
2021/06/10 05:55:51;;;;;;;71.17;23.80;;;23.20;25.80;;;;;;4790104;29;21028;-79
2021/06/10 05:58:17;;;;;;;71.83;24.67;;;23.60;25.80;;;;;;4790105;30;20471;-78
2021/06/10 06:00:44;;;;;;;71.30;28.33;;;23.70;24.40;;;;;;4790330;29;20929;-79
2021/06/10 06:03:12;;;;;;;82.23;42.43;;;23.70;22.40;;;;;;4790107;30;20442;-79
2021/06/10 06:05:40;;;;;;;80.50;44.60;;;23.30;22.20;;;;;;4790440;30;20463;-80
2021/06/10 06:08:06;;;;;;;75.33;34.30;;;23.20;19.40;;;;;;4791040;30;20521;-79
2021/06/10 06:10:33;;;;;;;73.37;25.07;;;23.10;20.30;;;;;;4789867;30;20991;-80
2021/06/10 06:13:02;;;;;;;71.20;22.90;;;23.30;23.40;;;;;;4790775;29;20496;-79
2021/06/10 06:15:28;;;;;;;72.83;21.40;;;24.00;25.30;;;;;;4791042;30;20438;-80
2021/06/10 06:17:55;;;;;;;74.10;25.83;;;24.30;20.90;;;;;;4789795;30;20518;-79
2021/06/10 06:20:22;;;;;;;74.90;27.80;;;24.30;20.40;;;;;;4790765;30;20540;-79
2021/06/10 09:27:57;;;;;;;72.20;8.27;;;30.10;1.00;;;;;;4869719;23;20470;-79
2021/06/10 09:30:31;;;;;;;75.53;9.43;;;30.90;1.00;;;;;;4852577;29;20523;-80
2021/06/10 09:32:59;;;;;;;68.27;8.63;;;31.40;1.00;;;;;;4858216;29;20514;-79
2021/06/10 09:35:29;;;;;;;71.07;9.50;;;31.30;1.00;;;;;;4859476;29;20468;-81
2021/06/10 09:38:00;;;;;;;70.47;10.10;;;31.00;1.00;;;;;;4859422;29;20468;-78
2021/06/10 09:40:32;;;;;;;71.97;10.57;;;30.90;1.00;;;;;;4859535;29;20456;-79
2021/06/10 09:43:00;;;;;;;71.50;9.10;;;30.70;1.00;;;;;;4858307;29;20462;-78
2021/06/10 09:45:32;;;;;;;69.50;9.30;;;30.60;1.00;;;;;;4841217;29;20458;-79
2021/06/10 09:48:04;;;;;;;74.03;8.90;;;30.10;1.00;;;;;;4839597;29;20461;-79
2021/06/10 09:50:37;;;;;;;69.53;9.13;;;30.10;1.00;;;;;;4840620;29;20468;-80
2021/06/10 09:53:09;;;;;;;68.60;8.90;;;30.60;1.00;;;;;;4840755;29;20485;-78
2021/06/10 09:55:43;;;;;;;71.87;8.23;;;30.90;1.00;;;;;;4841727;29;20948;-79
2021/06/10 09:58:28;;;;;;;69.60;8.83;;;32.20;1.00;;;;;;4841849;29;20440;-79
2021/06/10 10:00:58;;;;;;;68.97;8.97;;;32.70;1.00;;;;;;4841829;29;20522;-78
2021/06/10 10:03:42;;;;;;;71.93;10.00;;;32.70;1.00;;;;;;4840868;29;20446;-79
2021/06/10 10:06:20;;;;;;;70.77;9.20;;;32.20;1.00;;;;;;4841957;29;20956;-79
2021/06/10 10:08:50;;;;;;;69.37;9.70;;;32.80;1.00;;;;;;4842039;29;20445;-81
2021/06/10 10:11:18;;;;;;;74.13;10.77;;;33.00;1.00;;;;;;4841885;29;20440;-80
2021/06/10 10:13:49;;;;;;;70.27;10.30;;;32.40;1.00;;;;;;4841818;29;20493;-80
2021/06/10 10:16:19;;;;;;;73.97;10.63;;;32.60;1.00;;;;;;4841821;29;20436;-80
2021/06/10 10:18:47;;;;;;;69.80;9.40;;;32.30;1.00;;;;;;4840912;29;20477;-80
2021/06/10 10:21:14;;;;;;;70.70;9.97;;;32.80;1.00;;;;;;4842000;29;20440;-80
2021/06/10 10:23:41;;;;;;;70.27;10.30;;;32.00;1.00;;;;;;4841826;29;20525;-79
2021/06/10 10:26:08;;;;;;;71.00;9.03;;;31.30;1.00;;;;;;4841699;29;20892;-80
2021/06/10 10:28:36;;;;;;;70.00;8.67;;;30.80;1.00;;;;;;4841688;29;20443;-79
2021/06/10 10:31:06;;;;;;;69.00;9.27;;;30.80;1.00;;;;;;4841619;29;20461;-80
2021/06/10 10:33:32;;;;;;;69.80;8.97;;;30.30;1.00;;;;;;4840446;29;20504;-79
2021/06/10 10:36:03;;;;;;;73.50;8.80;;;30.50;1.00;;;;;;4844558;29;20447;-78
2021/06/10 10:38:32;;;;;;;71.80;7.77;;;30.80;1.00;;;;;;4844999;29;20440;-80
2021/06/10 10:41:01;;;;;;;67.60;7.60;;;30.50;1.00;;;;;;4844979;29;20937;-79
2021/06/10 10:43:29;;;;;;;69.70;8.50;;;30.90;1.00;;;;;;4844931;29;20517;-81
2021/06/10 10:46:11;;;;;;;69.57;8.70;;;30.70;1.00;;;;;;4844911;29;20435;-81
2021/06/10 10:48:41;;;;;;;68.67;9.37;;;31.20;1.00;;;;;;4844044;29;20618;-80
2021/06/10 10:51:25;;;;;;;68.27;8.20;;;30.70;1.00;;;;;;4844911;29;20469;-79
2021/06/10 10:53:58;;;;;;;68.30;7.83;;;30.80;1.00;;;;;;4844681;29;20503;-80
2021/06/10 10:56:40;;;;;;;67.80;7.77;;;30.80;1.00;;;;;;4844428;29;20442;-79
2021/06/10 10:59:11;;;;;;;67.50;7.73;;;31.90;1.00;;;;;;4843034;29;21109;-79
2021/06/10 11:04:55;;;;;;;69.97;9.03;;;32.60;1.00;;;;;;4892308;24;20487;-89
2021/06/10 11:08:17;;;;;;;72.80;8.00;;;32.10;1.00;;;;;;4844344;29;20435;-89
2021/06/10 11:19:52;;;;;;;66.57;7.63;;;31.70;1.00;;;;;;4823719;29;20491;-82
2021/06/10 11:45:37;;;;;;;67.90;9.30;;;30.70;1.00;;;;;;4784526;27;20572;-85
2021/06/10 12:13:55;;;;;;;67.90;7.90;;;34.10;1.00;;;;;;5404808;23;20506;-81
2021/06/10 12:16:22;;;;;;;69.50;9.60;;;33.80;1.00;;;;;;4843232;29;20552;-81
2021/06/10 12:18:53;;;;;;;71.57;18.40;;;32.90;1.00;;;;;;4845595;29;20871;-80
2021/06/10 12:21:27;;;;;;;70.90;9.30;;;30.50;1.00;;;;;;4860730;29;20468;-80
2021/06/10 12:23:59;;;;;;;67.83;8.53;;;29.50;1.00;;;;;;4860389;29;21010;-80
2021/06/10 12:26:33;;;;;;;69.43;9.37;;;30.50;1.00;;;;;;4860386;29;20455;-81
2021/06/10 12:29:16;;;;;;;67.27;8.37;;;30.10;1.00;;;;;;4842560;29;20797;-81
2021/06/10 12:31:50;;;;;;;67.57;9.60;;;29.10;1.00;;;;;;4842071;29;20856;-80
2021/06/10 12:34:19;;;;;;;68.00;9.20;;;28.80;1.00;;;;;;4840719;29;20507;-80
2021/06/10 12:36:47;;;;;;;67.73;8.70;;;29.80;1.00;;;;;;4842056;29;20480;-81
2021/06/10 12:39:18;;;;;;;67.17;7.13;;;30.50;1.00;;;;;;4842314;29;21000;-81
2021/06/10 12:41:46;;;;;;;66.57;6.90;;;31.20;1.00;;;;;;4841796;29;20864;-81
2021/06/10 12:44:18;;;;;;;67.43;6.97;;;29.90;1.00;;;;;;4841732;29;20470;-81
2021/06/10 12:46:51;;;;;;;68.67;6.93;;;30.50;1.00;;;;;;4841637;29;20954;-81
2021/06/10 12:49:46;;;;;;;66.43;8.50;;;30.30;1.00;;;;;;4839422;29;20985;-80
2021/06/10 12:52:53;;;;;;;65.77;7.73;;;30.80;1.00;;;;;;4841845;29;20925;-81
2021/06/10 12:55:38;;;;;;;67.80;8.27;;;31.70;1.00;;;;;;4836381;29;20470;-81
2021/06/10 12:58:18;;;;;;;67.47;9.20;;;29.60;1.00;;;;;;4804223;29;20462;-80
2021/06/10 13:00:51;;;;;;;67.87;9.57;;;28.90;1.00;;;;;;4823968;29;20462;-81
2021/06/10 13:03:21;;;;;;;65.07;8.50;;;28.30;1.00;;;;;;4821229;29;20474;-80
2021/06/10 13:08:36;;;;;;;63.90;6.70;;;30.40;1.00;;;;;;5156171;24;20499;-81
2021/06/10 13:11:15;;;;;;;63.50;6.43;;;31.80;1.00;;;;;;4887335;23;20476;-82
2021/06/10 13:13:44;;;;;;;65.57;6.93;;;33.00;1.00;;;;;;4839537;29;20887;-80
2021/06/10 13:16:15;;;;;;;66.10;7.13;;;34.00;1.00;;;;;;4840913;29;20489;-81
2021/06/10 13:18:52;;;;;;;65.97;6.83;;;34.30;1.00;;;;;;4839687;29;20472;-82
2021/06/10 13:21:21;;;;;;;74.87;6.83;;;34.30;1.00;;;;;;4840544;29;20442;-81
2021/06/10 13:23:58;;;;;;;67.80;7.40;;;34.20;1.00;;;;;;4840509;29;20531;-81
2021/06/10 13:26:29;;;;;;;68.90;8.33;;;34.50;1.00;;;;;;4840098;29;20481;-81
2021/06/10 13:29:10;;;;;;;67.60;7.30;;;33.90;1.00;;;;;;4840598;29;20470;-81
2021/06/10 13:32:03;;;;;;;73.53;7.47;;;34.40;1.00;;;;;;4840780;29;20503;-84
2021/06/10 13:35:07;;;;;;;71.00;7.10;;;35.10;1.00;;;;;;4838823;29;20524;-83
2021/06/10 13:50:56;;;;;;;68.30;8.40;;;34.60;1.00;;;;;;4680013;30;20490;-83
2021/06/10 13:53:35;;;;;;;69.43;7.17;;;34.40;1.00;;;;;;4806162;29;21048;-83
2021/06/10 13:59:35;;;;;;;68.77;7.60;;;35.70;1.00;;;;;;4983975;23;20445;-83
2021/06/10 14:02:25;;;;;;;74.20;8.93;;;36.30;1.00;;;;;;4819711;29;20453;-84
2021/06/10 14:05:30;;;;;;;72.43;10.97;;;36.10;1.00;;;;;;4820946;29;20474;-82
2021/06/10 14:08:18;;;;;;;;;;;;;;;;;;;;;
2021/06/10 14:11:14;;;;;;;71.23;9.83;;;33.60;1.00;;;;;;4825056;29;20564;-82
2021/06/10 14:13:54;;;;;;;74.13;10.60;;;32.30;1.00;;;;;;4825576;29;20478;-82
2021/06/10 14:16:31;;;;;;;70.27;9.90;;;31.80;1.00;;;;;;4825279;29;20959;-81
2021/06/10 14:19:08;;;;;;;70.20;10.30;;;32.00;1.00;;;;;;4823800;29;20570;-82
2021/06/10 14:21:38;;;;;;;69.97;9.33;;;32.20;1.00;;;;;;4824957;29;20522;-83
2021/06/10 14:24:09;;;;;;;68.47;8.57;;;33.10;1.00;;;;;;4825374;29;20943;-82
2021/06/10 14:26:39;;;;;;;72.27;10.00;;;32.20;1.00;;;;;;4824910;29;20497;-82
2021/06/10 14:29:25;;;;;;;69.37;9.80;;;31.60;1.00;;;;;;4825191;29;20448;-82
2021/06/10 14:34:46;;;;;;;69.90;10.27;;;31.90;1.00;;;;;;4825662;29;20468;-82
2021/06/10 14:37:28;;;;;;;69.10;9.10;;;33.50;1.00;;;;;;4826718;29;20468;-83
2021/06/10 14:40:06;;;;;;;71.57;9.10;;;33.80;1.00;;;;;;4826901;29;20455;-82
2021/06/10 14:42:33;;;;;;;71.60;9.33;;;34.60;1.00;;;;;;4826580;29;20465;-82
2021/06/10 14:47:35;;;;;;;71.47;9.33;;;35.50;1.00;;;;;;4848949;23;20489;-82
2021/06/10 14:50:02;;;;;;;71.70;10.33;;;36.10;1.00;;;;;;4843890;29;20440;-83
2021/06/10 16:39:05;;;;;;;69.07;10.17;;;33.10;1.00;;;;;;3225876;27;20498;-81
2021/06/10 16:41:33;;;;;;;73.20;11.00;;;33.10;1.00;;;;;;4824887;29;20466;-83
2021/06/10 16:44:00;;;;;;;69.50;10.60;;;33.00;1.00;;;;;;4824714;29;20468;-83
2021/06/10 16:46:38;;;;;;;68.50;10.23;;;32.70;1.00;;;;;;4824786;29;20553;-83
2021/06/10 16:49:05;;;;;;;70.57;10.87;;;32.80;1.00;;;;;;4823793;29;20539;-82
2021/06/10 16:51:36;;;;;;;69.97;9.77;;;33.30;1.00;;;;;;4824871;29;20441;-83
2021/06/10 16:54:08;;;;;;;69.20;9.67;;;33.60;1.00;;;;;;4824672;29;20577;-84
2021/06/10 16:56:43;;;;;;;70.07;11.70;;;33.60;1.00;;;;;;4824851;29;20489;-84
2021/06/10 16:59:13;;;;;;;74.90;12.73;;;33.60;1.00;;;;;;4824570;29;20464;-83
2021/06/10 17:01:52;;;;;;;68.90;9.97;;;33.70;1.00;;;;;;4824585;29;20465;-83
2021/06/10 17:04:31;;;;;;;69.67;10.80;;;33.60;1.00;;;;;;4823257;29;20561;-83
2021/06/10 17:07:00;;;;;;;69.97;10.17;;;34.00;1.00;;;;;;4824697;29;20513;-83
2021/06/10 17:09:33;;;;;;;69.07;10.20;;;34.10;1.00;;;;;;4824373;29;20935;-83
2021/06/10 17:12:01;;;;;;;69.97;10.80;;;34.30;1.00;;;;;;4824380;29;20520;-84
2021/06/10 17:14:42;;;;;;;74.00;10.50;;;34.60;1.00;;;;;;4824401;29;20869;-84
2021/06/10 17:18:25;;;;;;;;;;;;;;;;;;;;;
2021/06/10 17:32:05;;;;;;;68.03;9.90;;;34.50;1.00;;;;;;4550158;31;20455;-83
2021/06/10 17:34:37;;;;;;;69.30;10.70;;;34.60;1.00;;;;;;4741889;30;20577;-83
2021/06/10 17:37:04;;;;;;;70.50;11.80;;;34.30;1.00;;;;;;4785873;30;20522;-84
2021/06/10 17:39:36;;;;;;;68.87;10.53;;;34.30;1.00;;;;;;4785540;30;20528;-83
2021/06/10 17:42:09;;;;;;;69.37;11.37;;;33.40;1.00;;;;;;4802168;29;20790;-84
2021/06/10 17:44:43;;;;;;;68.17;10.40;;;33.20;1.00;;;;;;4823642;29;20440;-82
2021/06/10 17:47:12;;;;;;;68.17;10.20;;;34.00;1.00;;;;;;4821482;29;20517;-83
2021/06/10 17:49:41;;;;;;;67.90;11.37;;;34.10;1.00;;;;;;4821517;29;20444;-83
2021/06/10 17:52:19;;;;;;;;;;;;;;;;;;;;;
2021/06/10 17:54:53;;;;;;;68.70;11.20;;;34.80;1.00;;;;;;4822761;29;20904;-83
2021/06/10 17:57:30;;;;;;;70.30;10.80;;;35.50;1.00;;;;;;4823569;29;20441;-83
2021/06/10 18:05:22;;;;;;;74.30;11.70;;;35.10;1.00;;;;;;4821747;29;20473;-83
2021/06/10 18:07:57;;;;;;;68.67;10.83;;;34.60;1.00;;;;;;4822404;29;20465;-83
2021/06/10 18:10:28;;;;;;;67.43;9.70;;;34.60;1.00;;;;;;4822798;29;20464;-83
2021/06/10 18:28:17;;;;;;;;;;;;;;;;;;;;;
2021/06/10 18:30:45;;;;;;;65.27;6.67;;;31.00;1.00;;;;;;4823778;29;20499;-84
2021/06/10 18:33:15;;;;;;;64.77;6.00;;;30.80;1.00;;;;;;4840681;29;20545;-84
2021/06/10 18:35:53;;;;;;;65.83;6.30;;;31.80;1.00;;;;;;4841634;29;20466;-84
2021/06/10 18:38:23;;;;;;;64.30;5.73;;;31.50;1.00;;;;;;4841747;29;20526;-83
2021/06/10 18:41:16;;;;;;;65.00;5.83;;;31.90;1.00;;;;;;4841658;29;20461;-84
2021/06/10 18:43:57;;;;;;;66.70;5.87;;;32.30;1.00;;;;;;4841573;29;21028;-84
2021/06/10 18:47:06;;;;;;;;;;;;;;;;;;;;;
2021/06/10 18:49:49;;;;;;;63.87;5.20;;;32.80;1.00;;;;;;4796842;29;20433;-84
2021/06/10 18:52:45;;;;;;;63.40;5.20;;;32.70;1.00;;;;;;4808669;29;20432;-84
2021/06/10 18:59:11;;;;;;;;;;;;;;;;;;;;;
2021/06/10 19:08:17;;;;;;;;;;;;;;;;;;;;;
2021/06/10 19:10:53;;;;;;;62.00;5.97;;;30.60;1.00;;;;;;4749118;30;20904;-85
2021/06/10 19:13:34;;;;;;;;;;;;;;;;;;;;;
2021/06/10 19:16:06;;;;;;;60.87;6.20;;;29.70;1.00;;;;;;4769786;30;21043;-85
2021/06/10 19:18:34;;;;;;;66.20;6.00;;;29.30;1.00;;;;;;4811676;29;20460;-86
2021/06/10 19:21:06;;;;;;;61.67;6.20;;;29.20;1.00;;;;;;4844447;29;20444;-85
2021/06/10 19:23:32;;;;;;;60.20;5.77;;;28.80;1.00;;;;;;4844610;29;20470;-86
2021/06/10 19:25:59;;;;;;;59.00;6.13;;;28.20;1.00;;;;;;4844671;29;20476;-88
2021/06/10 19:28:27;;;;;;;60.87;6.87;;;26.80;1.00;;;;;;4844142;29;20463;-88
2021/06/10 19:30:54;;;;;;;58.90;6.67;;;25.40;1.00;;;;;;4844215;29;20497;-84
2021/06/10 19:53:36;;;;;;;43.30;2.77;;;20.20;21.80;;;;;;4540838;31;20470;-80
2021/06/10 19:56:03;;;;;;;46.83;3.00;;;20.00;22.50;;;;;;4617125;30;20478;-83
2021/06/10 19:58:29;;;;;;;42.17;2.80;;;19.80;16.90;;;;;;4713704;30;20446;-81
2021/06/10 20:00:56;;;;;;;44.20;2.83;;;19.80;24.10;;;;;;4761657;29;20546;-84
2021/06/10 20:03:25;;;;;;;39.37;3.10;;;19.60;28.80;;;;;;4792356;29;20436;-81
2021/06/10 20:05:51;;;;;;;43.37;4.40;;;19.60;19.40;;;;;;4842346;29;20969;-83
2021/06/10 20:08:19;;;;;;;38.30;4.03;;;19.60;18.50;;;;;;4842162;29;20986;-83
2021/06/10 20:10:45;;;;;;;37.13;4.20;;;19.60;22.70;;;;;;4841759;29;20457;-84
2021/06/10 20:13:12;;;;;;;36.87;3.60;;;19.50;37.60;;;;;;4842057;29;20494;-79
2021/06/10 20:15:38;;;;;;;35.73;3.27;;;19.20;41.40;;;;;;4842260;29;20489;-83
2021/06/10 20:18:07;;;;;;;36.73;3.77;;;19.10;49.70;;;;;;4840851;29;20556;-83
2021/06/10 20:20:35;;;;;;;36.60;3.50;;;19.00;52.40;;;;;;4842070;29;20479;-81
2021/06/10 20:23:02;;;;;;;36.10;3.17;;;18.90;62.20;;;;;;4843075;29;20461;-83
2021/06/10 20:25:28;;;;;;;34.57;4.33;;;18.70;69.00;;;;;;4843119;29;20863;-84
2021/06/10 20:30:39;;;;;;;32.87;3.07;;;18.50;84.70;;;;;;4843280;29;20537;-82
2021/06/10 20:33:18;;;;;;;36.13;3.07;;;18.30;86.40;;;;;;4842069;29;20481;-84
